createdAt,value
2023-07-06T00:00:18.787Z,3.92
2023-07-06T00:01:18.891Z,4.05
2023-07-06T00:02:18.845Z,4.13
2023-07-06T00:03:18.904Z,4.07
2023-07-06T00:04:19.011Z,4.19
2023-07-06T00:05:19.025Z,4.19
2023-07-06T00:06:19.121Z,4.05
2023-07-06T00:07:19.159Z,4.03
2023-07-06T00:08:19.214Z,3.90
2023-07-06T00:09:19.271Z,3.97
2023-07-06T00:10:19.350Z,3.83
2023-07-06T00:11:19.366Z,3.82
2023-07-06T00:12:19.414Z,3.78
2023-07-06T00:13:19.450Z,3.76
2023-07-06T00:14:19.522Z,3.57
2023-07-06T00:15:19.583Z,3.70
2023-07-06T00:16:19.727Z,3.80
2023-07-06T00:17:19.705Z,3.90
2023-07-06T00:18:19.790Z,3.84
2023-07-06T00:19:19.825Z,3.95
2023-07-06T00:20:19.885Z,3.97
2023-07-06T00:21:19.944Z,4.14
2023-07-06T00:22:20.043Z,4.06
2023-07-06T00:23:20.160Z,3.63
2023-07-06T00:24:20.113Z,3.47
2023-07-06T00:25:20.196Z,3.47
2023-07-06T00:26:20.298Z,3.58
2023-07-06T00:27:20.325Z,3.78
2023-07-06T00:28:20.426Z,3.83
2023-07-06T00:29:20.508Z,3.75
2023-07-06T00:30:20.531Z,3.83
2023-07-06T00:31:20.582Z,3.67
2023-07-06T00:32:20.666Z,3.53
2023-07-06T00:33:20.706Z,3.62
2023-07-06T00:34:20.915Z,3.78
2023-07-06T00:35:20.797Z,3.82
2023-07-06T00:36:20.861Z,3.89
2023-07-06T00:37:20.934Z,3.87
2023-07-06T00:38:20.995Z,3.82
2023-07-06T00:39:21.056Z,3.85
2023-07-06T00:40:21.141Z,3.88
2023-07-06T00:41:21.198Z,3.75
2023-07-06T00:42:21.337Z,3.72
2023-07-06T00:43:21.333Z,3.61
2023-07-06T00:44:21.380Z,3.62
2023-07-06T00:45:21.413Z,3.80
2023-07-06T00:46:22.332Z,3.64
2023-07-06T00:47:21.620Z,3.38
2023-07-06T00:48:21.639Z,2.94
2023-07-06T00:49:21.701Z,2.85
2023-07-06T00:50:21.771Z,2.98
2023-07-06T00:51:21.836Z,3.15
2023-07-06T00:52:21.875Z,3.15
2023-07-06T00:53:23.903Z,3.14
2023-07-06T00:54:21.993Z,3.01
2023-07-06T00:55:22.040Z,2.87
2023-07-06T00:56:22.086Z,2.85
2023-07-06T00:57:22.227Z,3.10
2023-07-06T00:58:22.192Z,3.23
2023-07-06T00:59:22.342Z,3.08
2023-07-06T01:00:22.385Z,3.27
2023-07-06T01:01:22.418Z,3.29
2023-07-06T01:02:22.527Z,3.16
2023-07-06T01:03:22.725Z,2.96
2023-07-06T01:04:22.614Z,3.00
2023-07-06T01:05:22.666Z,3.01
2023-07-06T01:06:22.694Z,3.10
2023-07-06T01:07:22.762Z,3.12
2023-07-06T01:08:22.811Z,3.25
2023-07-06T01:09:22.863Z,3.27
2023-07-06T01:10:22.973Z,3.34
2023-07-06T01:11:22.986Z,3.36
2023-07-06T01:12:23.054Z,3.38
2023-07-06T01:13:23.128Z,3.37
2023-07-06T01:14:23.400Z,3.27
2023-07-06T01:15:23.238Z,3.30
2023-07-06T01:16:23.312Z,3.32
2023-07-06T01:17:23.430Z,3.36
2023-07-06T01:18:23.416Z,3.35
2023-07-06T01:19:23.484Z,3.29
2023-07-06T01:20:23.529Z,3.29
2023-07-06T01:21:23.585Z,3.39
2023-07-06T01:22:23.647Z,3.39
2023-07-06T01:23:23.680Z,3.37
2023-07-06T01:24:23.757Z,3.48
2023-07-06T01:25:23.814Z,3.58
2023-07-06T01:26:23.868Z,3.46
2023-07-06T01:27:23.935Z,3.56
2023-07-06T01:28:24.006Z,3.62
2023-07-06T01:29:24.087Z,3.64
2023-07-06T01:30:24.120Z,3.63
2023-07-06T01:31:24.139Z,3.64
2023-07-06T01:32:24.188Z,3.67
2023-07-06T01:33:24.217Z,3.71
2023-07-06T01:34:24.281Z,3.73
2023-07-06T01:35:24.309Z,3.68
2023-07-06T01:36:24.380Z,3.63
2023-07-06T01:37:24.421Z,3.61
2023-07-06T01:38:24.451Z,3.72
2023-07-06T01:39:24.479Z,3.71
2023-07-06T01:40:24.524Z,3.68
2023-07-06T01:41:24.568Z,3.66
2023-07-06T01:42:24.589Z,3.67
2023-07-06T01:43:24.646Z,3.65
2023-07-06T01:44:24.698Z,3.69
2023-07-06T01:45:24.759Z,3.67
2023-07-06T01:46:24.773Z,3.61
2023-07-06T01:47:24.881Z,3.75
2023-07-06T01:48:24.853Z,3.66
2023-07-06T01:49:24.924Z,3.71
2023-07-06T01:50:24.962Z,3.64
2023-07-06T01:51:25.023Z,3.67
2023-07-06T01:52:25.079Z,3.66
2023-07-06T01:53:26.920Z,3.69
2023-07-06T01:54:25.175Z,3.69
2023-07-06T01:55:25.192Z,3.67
2023-07-06T01:56:25.314Z,3.63
2023-07-06T01:57:25.333Z,3.54
2023-07-06T01:58:25.372Z,3.51
2023-07-06T01:59:25.365Z,3.49
2023-07-06T02:00:25.423Z,3.51
2023-07-06T02:01:25.582Z,3.51
2023-07-06T02:02:25.572Z,3.54
2023-07-06T02:03:25.590Z,3.60
2023-07-06T02:04:25.580Z,3.58
2023-07-06T02:05:25.604Z,3.44
2023-07-06T02:06:25.654Z,3.49
2023-07-06T02:07:25.678Z,3.54
2023-07-06T02:08:25.706Z,3.56
2023-07-06T02:09:25.719Z,3.50
2023-07-06T02:10:25.742Z,3.51
2023-07-06T02:11:25.873Z,3.50
2023-07-06T02:12:25.865Z,3.53
2023-07-06T02:13:25.932Z,3.58
2023-07-06T02:14:25.961Z,3.52
2023-07-06T02:15:26.030Z,3.45
2023-07-06T02:16:26.211Z,3.37
2023-07-06T02:17:26.139Z,3.45
2023-07-06T02:18:26.213Z,3.37
2023-07-06T02:19:26.209Z,3.43
2023-07-06T02:20:26.235Z,3.44
2023-07-06T02:21:26.246Z,3.43
2023-07-06T02:22:26.311Z,3.36
2023-07-06T02:23:26.301Z,3.32
2023-07-06T02:24:26.372Z,3.37
2023-07-06T02:25:26.383Z,3.34
2023-07-06T02:26:26.442Z,3.31
2023-07-06T02:27:26.466Z,3.35
2023-07-06T02:28:26.506Z,3.31
2023-07-06T02:29:26.588Z,3.24
2023-07-06T02:30:26.578Z,3.28
2023-07-06T02:31:26.593Z,3.34
2023-07-06T02:32:26.703Z,3.32
2023-07-06T02:33:26.681Z,3.29
2023-07-06T02:34:26.712Z,3.23
2023-07-06T02:35:26.757Z,3.13
2023-07-06T02:36:26.761Z,3.17
2023-07-06T02:37:26.797Z,3.23
2023-07-06T02:38:26.866Z,3.17
2023-07-06T02:39:26.902Z,3.18
2023-07-06T02:40:26.943Z,3.16
2023-07-06T02:41:26.926Z,3.19
2023-07-06T02:42:27.014Z,3.20
2023-07-06T02:43:26.958Z,3.15
2023-07-06T02:44:26.999Z,3.23
2023-07-06T02:45:26.999Z,3.21
2023-07-06T02:46:27.017Z,3.00
2023-07-06T02:47:27.050Z,3.06
2023-07-06T02:48:27.088Z,3.08
2023-07-06T02:49:27.069Z,3.08
2023-07-06T02:50:27.116Z,3.11
2023-07-06T02:51:27.160Z,3.10
2023-07-06T02:52:27.164Z,3.15
2023-07-06T02:53:28.944Z,3.06
2023-07-06T02:54:27.223Z,3.07
2023-07-06T02:55:27.189Z,2.98
2023-07-06T02:56:27.212Z,3.06
2023-07-06T02:57:27.229Z,3.11
2023-07-06T02:58:27.253Z,2.99
2023-07-06T02:59:27.245Z,2.95
2023-07-06T03:00:27.244Z,2.92
2023-07-06T03:01:27.289Z,2.97
2023-07-06T03:02:27.240Z,3.01
2023-07-06T03:03:27.267Z,3.00
2023-07-06T03:04:27.461Z,3.02
2023-07-06T03:05:27.356Z,3.02
2023-07-06T03:06:27.278Z,3.06
2023-07-06T03:07:27.269Z,3.00
2023-07-06T03:08:27.288Z,3.05
2023-07-06T03:09:27.313Z,3.01
2023-07-06T03:10:27.337Z,2.99
2023-07-06T03:11:27.337Z,2.94
2023-07-06T03:12:27.349Z,2.90
2023-07-06T03:13:27.374Z,2.93
2023-07-06T03:14:27.338Z,2.88
2023-07-06T03:15:27.338Z,2.95
2023-07-06T03:16:27.425Z,2.99
2023-07-06T03:17:27.382Z,2.95
2023-07-06T03:18:27.376Z,2.99
2023-07-06T03:19:27.420Z,3.04
2023-07-06T03:20:27.379Z,2.96
2023-07-06T03:21:27.379Z,2.95
2023-07-06T03:22:27.385Z,2.91
2023-07-06T03:23:27.379Z,2.96
2023-07-06T03:24:27.441Z,2.99
2023-07-06T03:25:27.358Z,2.99
2023-07-06T03:26:27.409Z,2.94
2023-07-06T03:27:27.404Z,2.88
2023-07-06T03:28:27.454Z,2.92
2023-07-06T03:29:27.407Z,2.91
2023-07-06T03:30:27.407Z,2.97
2023-07-06T03:31:27.432Z,2.97
2023-07-06T03:32:27.427Z,2.97
2023-07-06T03:33:27.423Z,2.88
2023-07-06T03:34:27.426Z,2.88
2023-07-06T03:35:27.412Z,2.95
2023-07-06T03:36:27.409Z,2.95
2023-07-06T03:37:27.401Z,3.00
2023-07-06T03:38:27.424Z,2.97
2023-07-06T03:39:27.429Z,2.94
2023-07-06T03:40:27.444Z,2.96
2023-07-06T03:41:27.469Z,2.91
2023-07-06T03:42:27.448Z,2.86
2023-07-06T03:43:27.452Z,2.87
2023-07-06T03:44:27.465Z,2.84
2023-07-06T03:45:27.456Z,2.87
2023-07-06T03:46:27.489Z,2.84
2023-07-06T03:47:27.506Z,2.84
2023-07-06T03:48:27.500Z,2.83
2023-07-06T03:49:27.461Z,2.83
2023-07-06T03:50:27.479Z,2.82
2023-07-06T03:51:27.506Z,2.81
2023-07-06T03:52:27.517Z,2.82
2023-07-06T03:53:27.536Z,2.78
2023-07-06T03:54:27.554Z,2.79
2023-07-06T03:55:27.536Z,2.83
2023-07-06T03:56:27.539Z,2.87
2023-07-06T03:57:27.559Z,2.78
2023-07-06T03:58:27.557Z,2.79
2023-07-06T03:59:27.552Z,2.81
2023-07-06T04:00:27.569Z,2.75
2023-07-06T04:01:27.590Z,2.80
2023-07-06T04:02:27.629Z,2.77
2023-07-06T04:03:27.582Z,2.80
2023-07-06T04:04:27.553Z,2.80
2023-07-06T04:05:27.570Z,2.78
2023-07-06T04:06:27.565Z,2.80
2023-07-06T04:07:27.562Z,2.80
2023-07-06T04:08:27.552Z,2.76
2023-07-06T04:09:27.558Z,2.77
2023-07-06T04:10:27.563Z,2.69
2023-07-06T04:11:27.573Z,2.68
2023-07-06T04:12:27.564Z,2.68
2023-07-06T04:13:27.613Z,2.75
2023-07-06T04:14:27.567Z,2.69
2023-07-06T04:15:27.566Z,2.74
2023-07-06T04:16:27.578Z,2.64
2023-07-06T04:17:27.597Z,2.67
2023-07-06T04:18:27.982Z,2.70
2023-07-06T04:19:27.563Z,2.71
2023-07-06T04:20:27.579Z,2.67
2023-07-06T04:21:27.604Z,2.70
2023-07-06T04:22:27.579Z,2.68
2023-07-06T04:23:27.616Z,2.67
2023-07-06T04:24:27.606Z,2.69
2023-07-06T04:25:27.613Z,2.60
2023-07-06T04:26:27.613Z,2.64
2023-07-06T04:27:27.601Z,2.54
2023-07-06T04:28:27.602Z,2.54
2023-07-06T04:29:27.627Z,2.56
2023-07-06T04:30:27.631Z,2.48
2023-07-06T04:31:27.622Z,2.44
2023-07-06T04:32:27.611Z,2.39
2023-07-06T04:33:27.625Z,2.40
2023-07-06T04:34:27.638Z,2.44
2023-07-06T04:35:27.680Z,2.44
2023-07-06T04:36:27.683Z,2.46
2023-07-06T04:37:27.706Z,2.42
2023-07-06T04:38:27.673Z,2.35
2023-07-06T04:39:27.991Z,2.40
2023-07-06T04:40:27.831Z,2.34
2023-07-06T04:41:27.737Z,2.33
2023-07-06T04:42:27.748Z,2.30
2023-07-06T04:43:27.756Z,2.40
2023-07-06T04:44:27.781Z,2.36
2023-07-06T04:45:27.887Z,2.42
2023-07-06T04:46:27.854Z,2.46
2023-07-06T04:47:27.867Z,2.37
2023-07-06T04:48:27.877Z,2.40
2023-07-06T04:49:27.876Z,2.45
2023-07-06T04:50:27.893Z,2.40
2023-07-06T04:51:27.962Z,2.24
2023-07-06T04:52:27.930Z,2.32
2023-07-06T04:53:27.969Z,2.33
2023-07-06T04:54:27.980Z,2.29
2023-07-06T04:55:28.003Z,2.29
2023-07-06T04:56:28.006Z,2.24
2023-07-06T04:57:27.994Z,2.21
2023-07-06T04:58:28.045Z,2.17
2023-07-06T04:59:28.062Z,2.24
2023-07-06T05:00:28.090Z,2.09
2023-07-06T05:01:28.244Z,2.04
2023-07-06T05:02:28.260Z,2.11
2023-07-06T05:03:28.242Z,2.00
2023-07-06T05:04:28.266Z,1.96
2023-07-06T05:05:28.273Z,1.93
2023-07-06T05:06:28.296Z,1.97
2023-07-06T05:07:28.309Z,1.96
2023-07-06T05:08:28.373Z,1.85
2023-07-06T05:09:28.410Z,1.85
2023-07-06T05:10:28.408Z,1.81
2023-07-06T05:11:28.423Z,1.88
2023-07-06T05:12:28.422Z,1.84
2023-07-06T05:13:28.498Z,1.76
2023-07-06T05:14:28.491Z,1.85
2023-07-06T05:15:28.512Z,1.79
2023-07-06T05:16:28.564Z,1.72
2023-07-06T05:17:28.570Z,1.67
2023-07-06T05:18:28.567Z,1.66
2023-07-06T05:19:28.591Z,1.70
2023-07-06T05:20:28.595Z,1.76
2023-07-06T05:21:28.626Z,1.83
2023-07-06T05:22:28.704Z,1.89
2023-07-06T05:23:28.703Z,1.78
2023-07-06T05:24:28.791Z,1.82
2023-07-06T05:25:28.749Z,1.82
2023-07-06T05:26:28.773Z,1.92
2023-07-06T05:27:28.771Z,1.86
2023-07-06T05:28:28.802Z,2.05
2023-07-06T05:29:28.878Z,2.01
2023-07-06T05:30:28.849Z,2.25
2023-07-06T05:31:28.881Z,2.45
2023-07-06T05:32:29.022Z,2.49
2023-07-06T05:33:28.885Z,2.65
2023-07-06T05:34:29.100Z,2.80
2023-07-06T05:35:29.042Z,3.02
2023-07-06T05:36:28.897Z,3.23
2023-07-06T05:37:35.294Z,3.29
2023-07-06T05:38:29.916Z,3.31
2023-07-06T05:39:28.976Z,3.41
2023-07-06T05:40:28.914Z,3.65
2023-07-06T05:41:28.929Z,4.20
2023-07-06T05:42:28.913Z,5.07
2023-07-06T05:43:30.994Z,5.50
2023-07-06T05:44:28.842Z,5.67
2023-07-06T05:45:28.922Z,5.91
2023-07-06T05:46:28.989Z,6.22
2023-07-06T05:47:29.027Z,6.25
2023-07-06T05:48:29.106Z,6.41
2023-07-06T05:49:29.195Z,6.56
2023-07-06T05:50:29.209Z,6.74
2023-07-06T05:51:29.245Z,7.20
2023-07-06T05:52:29.344Z,7.19
2023-07-06T05:53:29.364Z,7.96
2023-07-06T05:54:29.429Z,7.80
2023-07-06T05:55:29.481Z,8.16
2023-07-06T05:56:29.520Z,8.26
2023-07-06T05:57:30.524Z,8.22
2023-07-06T05:58:29.628Z,8.73
2023-07-06T05:59:29.639Z,8.66
2023-07-06T06:00:29.783Z,9.00
2023-07-06T06:01:29.792Z,9.49
2023-07-06T06:02:29.821Z,9.03
2023-07-06T06:03:29.810Z,8.72
2023-07-06T06:04:29.923Z,7.90
2023-07-06T06:05:29.935Z,7.76
2023-07-06T06:06:29.966Z,7.25
2023-07-06T06:07:30.026Z,7.19
2023-07-06T06:08:30.108Z,7.67
2023-07-06T06:09:30.205Z,7.50
2023-07-06T06:10:30.216Z,6.99
2023-07-06T06:11:30.259Z,5.49
2023-07-06T06:12:30.296Z,5.90
2023-07-06T06:13:30.510Z,5.65
2023-07-06T06:14:30.473Z,4.67
2023-07-06T06:15:30.577Z,5.23
2023-07-06T06:16:30.611Z,8.46
2023-07-06T06:17:30.657Z,11.28
2023-07-06T06:18:30.633Z,12.52
2023-07-06T06:19:30.839Z,14.10
2023-07-06T06:20:30.735Z,16.02
2023-07-06T06:21:30.843Z,15.81
2023-07-06T06:22:30.929Z,15.99
2023-07-06T06:23:30.903Z,17.59
2023-07-06T06:24:30.920Z,18.57
2023-07-06T06:25:30.994Z,18.75
2023-07-06T06:26:31.005Z,17.57
2023-07-06T06:27:31.044Z,17.12
2023-07-06T06:28:31.180Z,15.66
2023-07-06T06:29:31.126Z,15.41
2023-07-06T06:30:31.201Z,14.82
2023-07-06T06:31:31.176Z,14.18
2023-07-06T06:32:31.255Z,12.58
2023-07-06T06:33:31.240Z,12.87
2023-07-06T06:34:31.226Z,12.08
2023-07-06T06:35:31.337Z,11.53
2023-07-06T06:36:31.224Z,10.64
2023-07-06T06:37:31.332Z,9.63
2023-07-06T06:38:33.042Z,8.34
2023-07-06T06:39:31.364Z,8.64
2023-07-06T06:40:31.346Z,7.62
2023-07-06T06:41:31.309Z,6.83
2023-07-06T06:42:31.343Z,6.36
2023-07-06T06:43:31.383Z,6.05
2023-07-06T06:44:31.687Z,5.83
2023-07-06T06:45:31.454Z,5.28
2023-07-06T06:46:31.490Z,5.19
2023-07-06T06:47:31.618Z,5.51
2023-07-06T06:48:31.668Z,5.25
2023-07-06T06:49:31.574Z,4.98
2023-07-06T06:50:31.583Z,4.44
2023-07-06T06:51:31.700Z,4.48
2023-07-06T06:52:31.731Z,3.57
2023-07-06T06:53:31.802Z,3.63
2023-07-06T06:54:31.819Z,3.63
2023-07-06T06:55:31.812Z,3.05
2023-07-06T06:56:31.818Z,3.08
2023-07-06T06:57:31.840Z,3.07
2023-07-06T06:58:31.890Z,2.94
2023-07-06T06:59:31.908Z,3.06
2023-07-06T07:00:31.983Z,2.83
2023-07-06T07:01:32.093Z,3.14
2023-07-06T07:02:32.100Z,3.50
2023-07-06T07:03:32.097Z,3.75
2023-07-06T07:04:32.117Z,3.87
2023-07-06T07:05:32.083Z,3.90
2023-07-06T07:06:32.142Z,3.91
2023-07-06T07:07:32.178Z,3.91
2023-07-06T07:08:32.262Z,3.77
2023-07-06T07:09:32.365Z,3.46
2023-07-06T07:10:32.411Z,3.55
2023-07-06T07:11:32.482Z,3.67
2023-07-06T07:12:32.547Z,3.46
2023-07-06T07:13:32.600Z,3.54
2023-07-06T07:14:32.698Z,3.40
2023-07-06T07:15:32.699Z,3.51
2023-07-06T07:16:32.760Z,3.39
2023-07-06T07:17:32.852Z,3.50
2023-07-06T07:18:32.760Z,3.24
2023-07-06T07:19:32.797Z,3.39
2023-07-06T07:20:32.845Z,3.39
2023-07-06T07:21:32.900Z,3.22
2023-07-06T07:22:32.936Z,3.27
2023-07-06T07:23:33.000Z,3.21
2023-07-06T07:24:33.103Z,3.27
2023-07-06T07:25:33.107Z,3.32
2023-07-06T07:26:33.239Z,3.45
2023-07-06T07:27:34.098Z,3.45
2023-07-06T07:28:33.298Z,3.65
2023-07-06T07:29:33.373Z,3.83
2023-07-06T07:30:33.609Z,3.87
2023-07-06T07:31:33.569Z,3.85
2023-07-06T07:32:33.666Z,3.88
2023-07-06T07:33:33.785Z,3.74
2023-07-06T07:34:33.691Z,3.00
2023-07-06T07:35:33.755Z,3.15
2023-07-06T07:36:35.124Z,3.14
2023-07-06T07:37:33.920Z,3.37
2023-07-06T07:38:33.925Z,3.63
2023-07-06T07:39:33.978Z,3.84
2023-07-06T07:40:34.050Z,3.68
2023-07-06T07:41:34.050Z,3.60
2023-07-06T07:42:34.148Z,3.67
2023-07-06T07:43:34.220Z,3.98
2023-07-06T07:44:34.675Z,4.22
2023-07-06T07:45:34.323Z,4.18
2023-07-06T07:46:34.444Z,4.47
2023-07-06T07:47:34.406Z,4.65
2023-07-06T07:48:34.438Z,4.52
2023-07-06T07:49:34.540Z,3.60
2023-07-06T07:50:34.537Z,3.22
2023-07-06T07:51:34.734Z,3.11
2023-07-06T07:52:34.655Z,2.95
2023-07-06T07:53:34.693Z,3.31
2023-07-06T07:54:34.753Z,2.42
2023-07-06T07:55:35.091Z,1.99
2023-07-06T07:56:34.865Z,1.87
2023-07-06T07:57:34.922Z,1.81
2023-07-06T07:58:34.939Z,1.67
2023-07-06T07:59:34.928Z,1.73
2023-07-06T08:00:35.081Z,1.99
2023-07-06T08:01:35.086Z,2.05
2023-07-06T08:02:35.074Z,1.77
2023-07-06T08:03:35.128Z,1.56
2023-07-06T08:04:36.735Z,1.72
2023-07-06T08:05:35.128Z,2.00
2023-07-06T08:06:35.239Z,2.07
2023-07-06T08:07:35.168Z,2.05
2023-07-06T08:08:35.118Z,1.79
2023-07-06T08:09:35.180Z,1.40
2023-07-06T08:10:35.127Z,1.42
2023-07-06T08:11:35.085Z,1.66
2023-07-06T08:12:35.095Z,1.96
2023-07-06T08:13:35.123Z,2.23
2023-07-06T08:14:35.121Z,2.43
2023-07-06T08:15:35.067Z,2.84
2023-07-06T08:16:35.200Z,3.16
2023-07-06T08:17:35.137Z,3.58
2023-07-06T08:18:35.037Z,4.06
2023-07-06T08:19:41.990Z,4.42
2023-07-06T08:21:09.928Z,4.44
2023-07-06T08:21:48.563Z,4.45
2023-07-06T08:22:36.104Z,4.46
2023-07-06T08:23:35.049Z,4.58
2023-07-06T08:24:35.086Z,4.85
2023-07-06T08:25:34.992Z,5.24
2023-07-06T08:26:35.004Z,5.82
2023-07-06T08:27:35.003Z,5.74
2023-07-06T08:28:34.989Z,5.21
2023-07-06T08:29:34.997Z,3.72
2023-07-06T08:30:35.014Z,3.09
2023-07-06T08:31:35.044Z,2.34
2023-07-06T08:32:35.055Z,1.90
2023-07-06T08:33:34.937Z,1.55
2023-07-06T08:34:34.948Z,1.30
2023-07-06T08:35:35.031Z,1.17
2023-07-06T08:36:35.047Z,1.13
2023-07-06T08:37:34.969Z,0.96
2023-07-06T08:38:34.906Z,0.79
2023-07-06T08:39:35.110Z,0.79
2023-07-06T08:40:34.911Z,0.73
2023-07-06T08:41:34.930Z,0.72
2023-07-06T08:42:34.898Z,0.72
2023-07-06T08:43:34.909Z,0.73
2023-07-06T08:44:34.925Z,0.74
2023-07-06T08:45:34.896Z,0.69
2023-07-06T08:46:34.903Z,0.60
2023-07-06T08:47:34.886Z,0.58
2023-07-06T08:48:34.874Z,0.56
2023-07-06T08:49:34.956Z,0.63
2023-07-06T08:50:34.852Z,0.58
2023-07-06T08:51:34.894Z,0.55
2023-07-06T08:52:34.849Z,0.52
2023-07-06T08:53:34.842Z,0.51
2023-07-06T08:54:34.823Z,0.51
2023-07-06T08:55:35.122Z,0.50
2023-07-06T08:56:34.892Z,0.51
2023-07-06T08:57:34.909Z,0.52
2023-07-06T08:58:34.968Z,0.50
2023-07-06T08:59:35.063Z,0.50
2023-07-06T09:00:35.088Z,0.50
2023-07-06T09:01:35.124Z,0.52
2023-07-06T09:02:35.119Z,0.61
2023-07-06T09:03:35.232Z,0.59
2023-07-06T09:04:35.130Z,0.56
2023-07-06T09:05:35.127Z,0.53
2023-07-06T09:06:35.159Z,0.50
2023-07-06T09:07:35.180Z,0.51
2023-07-06T09:08:35.217Z,0.56
2023-07-06T09:09:35.225Z,0.61
2023-07-06T09:10:35.667Z,0.54
2023-07-06T09:11:35.286Z,0.50
2023-07-06T09:12:35.314Z,0.50
2023-07-06T09:13:35.416Z,0.55
2023-07-06T09:14:35.431Z,0.56
2023-07-06T09:15:37.820Z,0.55
2023-07-06T09:16:35.681Z,0.58
2023-07-06T09:17:35.734Z,0.50
2023-07-06T09:18:35.755Z,0.51
2023-07-06T09:19:35.825Z,0.52
2023-07-06T09:20:36.228Z,0.54
2023-07-06T09:21:35.831Z,0.55
2023-07-06T09:22:35.863Z,0.59
2023-07-06T09:23:35.873Z,0.64
2023-07-06T09:24:35.858Z,0.66
2023-07-06T09:25:35.879Z,0.74
2023-07-06T09:26:35.853Z,0.81
2023-07-06T09:27:35.965Z,0.75
2023-07-06T09:28:35.925Z,0.83
2023-07-06T09:29:35.960Z,0.88
2023-07-06T09:30:36.122Z,0.90
2023-07-06T09:31:36.025Z,0.81
2023-07-06T09:32:36.212Z,0.87
2023-07-06T09:33:36.105Z,0.96
2023-07-06T09:34:36.171Z,0.85
2023-07-06T09:35:36.225Z,0.69
2023-07-06T09:36:36.241Z,0.66
2023-07-06T09:37:36.243Z,0.70
2023-07-06T09:38:36.273Z,0.77
2023-07-06T09:39:36.367Z,0.68
2023-07-06T09:40:36.671Z,0.67
2023-07-06T09:41:36.414Z,0.70
2023-07-06T09:42:36.477Z,0.77
2023-07-06T09:43:36.674Z,0.95
2023-07-06T09:44:36.580Z,1.01
2023-07-06T09:45:36.703Z,0.98
2023-07-06T09:46:36.689Z,1.04
2023-07-06T09:47:36.788Z,1.07
2023-07-06T09:48:36.794Z,1.04
2023-07-06T09:49:36.829Z,1.06
2023-07-06T09:50:36.928Z,1.13
2023-07-06T09:51:39.569Z,1.06
2023-07-06T09:52:36.935Z,0.82
2023-07-06T09:53:36.963Z,0.69
2023-07-06T09:54:36.924Z,0.63
2023-07-06T09:55:36.948Z,0.58
2023-07-06T09:56:36.912Z,0.57
2023-07-06T09:57:36.928Z,0.59
2023-07-06T09:58:36.900Z,0.62
2023-07-06T09:59:36.880Z,0.62
2023-07-06T10:00:36.892Z,0.67
2023-07-06T10:01:36.894Z,0.73
2023-07-06T10:02:36.905Z,0.79
2023-07-06T10:03:36.883Z,0.79
2023-07-06T10:04:36.922Z,0.78
2023-07-06T10:05:36.950Z,0.73
2023-07-06T10:06:36.854Z,0.68
2023-07-06T10:07:36.823Z,0.65
2023-07-06T10:08:36.827Z,0.61
2023-07-06T10:09:36.849Z,0.60
2023-07-06T10:10:36.870Z,0.57
2023-07-06T10:11:36.884Z,0.54
2023-07-06T10:12:36.809Z,0.53
2023-07-06T10:13:36.811Z,0.54
2023-07-06T10:14:36.776Z,0.55
2023-07-06T10:15:36.794Z,0.53
2023-07-06T10:16:36.834Z,0.53
2023-07-06T10:17:36.853Z,0.50
2023-07-06T10:18:36.751Z,0.52
2023-07-06T10:19:37.135Z,0.50
2023-07-06T10:20:36.740Z,0.52
2023-07-06T10:21:36.754Z,0.54
2023-07-06T10:22:36.795Z,0.53
2023-07-06T10:23:36.752Z,0.53
2023-07-06T10:24:36.744Z,0.52
2023-07-06T10:25:36.690Z,0.51
2023-07-06T10:26:36.701Z,0.50
2023-07-06T10:27:36.741Z,0.50
2023-07-06T10:28:36.721Z,0.50
2023-07-06T10:29:36.700Z,0.51
2023-07-06T10:30:36.688Z,0.51
2023-07-06T10:31:36.714Z,0.51
2023-07-06T10:32:36.728Z,0.50
2023-07-06T10:33:36.741Z,0.50
2023-07-06T10:34:36.796Z,0.50
2023-07-06T10:35:36.820Z,0.51
2023-07-06T10:36:36.884Z,0.52
2023-07-06T10:37:36.923Z,0.50
2023-07-06T10:38:36.982Z,0.51
2023-07-06T10:39:37.058Z,0.52
2023-07-06T10:40:37.119Z,0.52
2023-07-06T10:41:37.117Z,0.54
2023-07-06T10:42:37.206Z,0.54
2023-07-06T10:43:37.235Z,0.57
2023-07-06T10:44:37.302Z,0.56
2023-07-06T10:45:37.435Z,0.57
2023-07-06T10:46:37.607Z,0.54
2023-07-06T10:47:37.448Z,0.51
2023-07-06T10:48:37.569Z,0.53
2023-07-06T10:49:37.644Z,0.51
2023-07-06T10:50:37.664Z,0.50
2023-07-06T10:51:37.666Z,0.50
2023-07-06T10:52:37.747Z,0.54
2023-07-06T10:53:37.840Z,0.51
2023-07-06T10:54:37.881Z,0.50
2023-07-06T10:55:38.262Z,0.51
2023-07-06T10:56:37.983Z,0.50
2023-07-06T10:57:37.958Z,0.51
2023-07-06T10:58:38.054Z,0.51
2023-07-06T10:59:38.086Z,0.52
2023-07-06T11:00:38.154Z,0.50
2023-07-06T11:01:38.241Z,0.50
2023-07-06T11:02:38.159Z,0.50
2023-07-06T11:03:38.257Z,0.55
2023-07-06T11:04:38.338Z,0.52
2023-07-06T11:05:38.299Z,0.50
2023-07-06T11:06:38.316Z,0.50
2023-07-06T11:07:38.306Z,0.51
2023-07-06T11:08:38.355Z,0.52
2023-07-06T11:09:38.328Z,0.50
2023-07-06T11:10:38.412Z,0.50
2023-07-06T11:11:38.325Z,0.51
2023-07-06T11:12:38.432Z,0.52
2023-07-06T11:13:38.460Z,0.53
2023-07-06T11:14:38.354Z,0.52
2023-07-06T11:15:38.392Z,0.50
2023-07-06T11:16:38.385Z,0.51
2023-07-06T11:17:38.462Z,0.51
2023-07-06T11:18:38.489Z,0.50
2023-07-06T11:19:38.515Z,0.50
2023-07-06T11:20:38.567Z,0.51
2023-07-06T11:21:38.611Z,0.53
2023-07-06T11:22:38.613Z,0.51
2023-07-06T11:23:38.641Z,0.52
2023-07-06T11:24:38.684Z,0.56
2023-07-06T11:25:38.793Z,0.50
2023-07-06T11:26:38.835Z,0.52
2023-07-06T11:27:38.897Z,0.50
2023-07-06T11:28:38.942Z,0.51
2023-07-06T11:29:38.991Z,0.50
2023-07-06T11:30:39.012Z,0.53
2023-07-06T11:31:39.067Z,0.53
2023-07-06T11:32:39.076Z,0.52
2023-07-06T11:33:39.116Z,0.53
2023-07-06T11:34:39.764Z,0.53
2023-07-06T11:35:39.110Z,0.53
2023-07-06T11:36:39.168Z,0.58
2023-07-06T11:37:53.208Z,0.49
2023-07-06T11:38:40.131Z,0.45
2023-07-06T11:39:39.137Z,0.40
2023-07-06T11:40:39.149Z,0.41
2023-07-06T11:41:39.119Z,0.41
2023-07-06T11:42:39.140Z,0.39
2023-07-06T11:43:39.111Z,0.50
2023-07-06T11:44:39.118Z,0.55
2023-07-06T11:45:39.109Z,0.51
2023-07-06T11:46:39.173Z,0.53
2023-07-06T11:47:39.280Z,0.54
2023-07-06T11:48:39.067Z,0.55
2023-07-06T11:49:39.126Z,0.61
2023-07-06T11:50:39.080Z,0.65
2023-07-06T11:51:39.082Z,0.67
2023-07-06T11:52:39.056Z,0.64
2023-07-06T11:53:39.077Z,0.68
2023-07-06T11:54:39.144Z,0.67
2023-07-06T11:55:39.259Z,0.63
2023-07-06T11:56:39.279Z,0.61
2023-07-06T11:57:39.302Z,0.62
2023-07-06T11:58:39.289Z,0.71
2023-07-06T11:59:39.293Z,0.71
2023-07-06T12:00:39.485Z,0.66
2023-07-06T12:01:39.473Z,0.67
2023-07-06T12:02:39.514Z,0.72
2023-07-06T12:03:39.670Z,0.70
2023-07-06T12:04:39.629Z,0.66
2023-07-06T12:05:39.643Z,0.67
2023-07-06T12:06:39.638Z,0.68
2023-07-06T12:07:39.668Z,0.68
2023-07-06T12:08:39.688Z,0.79
2023-07-06T12:09:39.730Z,0.76
2023-07-06T12:10:39.752Z,0.80
2023-07-06T12:11:39.805Z,0.71
2023-07-06T12:12:39.844Z,0.70
2023-07-06T12:13:39.881Z,0.65
2023-07-06T12:14:39.885Z,0.64
2023-07-06T12:15:39.883Z,0.62
2023-07-06T12:16:40.119Z,0.62
2023-07-06T12:17:39.993Z,0.70
2023-07-06T12:18:39.989Z,0.61
2023-07-06T12:19:40.103Z,0.56
2023-07-06T12:20:40.123Z,0.54
2023-07-06T12:21:40.148Z,0.55
2023-07-06T12:22:40.237Z,0.55
2023-07-06T12:23:40.194Z,0.57
2023-07-06T12:24:40.254Z,0.61
2023-07-06T12:25:40.269Z,0.63
2023-07-06T12:26:40.319Z,0.67
2023-07-06T12:27:40.292Z,0.67
2023-07-06T12:28:40.321Z,0.65
2023-07-06T12:29:40.433Z,0.65
2023-07-06T12:30:40.496Z,0.63
2023-07-06T12:31:40.472Z,0.65
2023-07-06T12:32:40.529Z,0.70
2023-07-06T12:33:40.511Z,0.69
2023-07-06T12:34:40.542Z,0.66
2023-07-06T12:35:40.546Z,0.58
2023-07-06T12:36:40.593Z,0.57
2023-07-06T12:37:40.642Z,0.59
2023-07-06T12:38:41.220Z,0.67
2023-07-06T12:39:40.718Z,0.63
2023-07-06T12:40:40.824Z,0.69
2023-07-06T12:41:40.816Z,0.77
2023-07-06T12:42:40.828Z,0.72
2023-07-06T12:43:40.879Z,0.70
2023-07-06T12:44:40.928Z,0.68
2023-07-06T12:45:41.068Z,0.70
2023-07-06T12:46:41.088Z,0.65
2023-07-06T12:47:41.168Z,0.74
2023-07-06T12:48:41.146Z,0.78
2023-07-06T12:49:41.232Z,0.76
2023-07-06T12:50:41.285Z,0.79
2023-07-06T12:51:41.366Z,0.66
2023-07-06T12:52:41.425Z,0.72
2023-07-06T12:53:41.524Z,0.79
2023-07-06T12:54:41.569Z,0.83
2023-07-06T12:55:41.601Z,0.88
2023-07-06T12:56:41.686Z,0.78
2023-07-06T12:57:41.717Z,0.70
2023-07-06T12:58:41.773Z,0.67
2023-07-06T12:59:41.854Z,0.75
2023-07-06T13:00:41.978Z,0.78
2023-07-06T13:01:41.959Z,0.87
2023-07-06T13:02:42.267Z,0.82
2023-07-06T13:03:42.063Z,0.77
2023-07-06T13:04:42.147Z,0.75
2023-07-06T13:05:42.210Z,0.84
2023-07-06T13:06:42.225Z,0.85
2023-07-06T13:07:42.305Z,0.78
2023-07-06T13:08:42.342Z,0.77
2023-07-06T13:09:42.417Z,0.80
2023-07-06T13:10:42.516Z,0.93
2023-07-06T13:11:42.548Z,0.94
2023-07-06T13:12:42.611Z,0.97
2023-07-06T13:13:42.691Z,0.99
2023-07-06T13:14:42.713Z,0.98
2023-07-06T13:15:42.835Z,0.85
2023-07-06T13:16:42.919Z,0.87
2023-07-06T13:17:42.914Z,0.78